Time;durP1;ratioP1;P1;durP2;ratioP2;P2;SDS_P1;SDS_P2;PMS_P1;PMS_P2;Temp;Humidity;BMP_temperature;BMP_pressure;BME280_temperature;BME280_humidity;BME280_pressure;Samples;Min_cycle;Max_cycle;Signal;HPM_P1;HPM_P2
2024/01/12 00:01:22;;;;;;;14.80;11.23;;;-0.90;1.00;;;;;;5073055;28;20539;-74
2024/01/12 00:03:48;;;;;;;16.17;12.43;;;-0.90;1.00;;;;;;5073121;28;20169;-74
2024/01/12 00:06:14;;;;;;;17.47;11.37;;;-0.80;1.00;;;;;;5070835;28;20186;-79
2024/01/12 00:08:40;;;;;;;15.13;12.20;;;-0.80;1.00;;;;;;5072942;28;20200;-79
2024/01/12 00:11:09;;;;;;;15.67;12.07;;;-0.90;1.00;;;;;;5072817;28;20542;-70
2024/01/12 00:13:35;;;;;;;14.90;11.55;;;-0.80;1.00;;;;;;5072247;28;20155;-79
2024/01/12 00:16:08;;;;;;;14.88;12.00;;;-0.80;1.00;;;;;;5072038;28;20165;-70
2024/01/12 00:18:34;;;;;;;11.85;10.65;;;-0.80;1.00;;;;;;5072813;28;20253;-80
2024/01/12 00:20:59;;;;;;;11.80;9.75;;;-0.80;1.00;;;;;;5072800;28;20174;-78
2024/01/12 00:23:26;;;;;;;18.83;12.17;;;-0.80;1.00;;;;;;5072878;28;20169;-80
2024/01/12 00:25:58;;;;;;;13.40;10.77;;;-0.80;1.00;;;;;;5070631;28;20531;-75
2024/01/12 00:28:27;;;;;;;16.10;11.40;;;-0.80;1.00;;;;;;5072702;28;20186;-79
2024/01/12 00:30:54;;;;;;;14.00;11.07;;;-0.80;1.00;;;;;;5071934;28;20706;-77
2024/01/12 00:33:20;;;;;;;15.77;10.60;;;-0.80;1.00;;;;;;5072678;28;20535;-71
2024/01/12 00:35:46;;;;;;;12.83;10.33;;;-0.80;1.00;;;;;;5071822;28;20163;-73
2024/01/12 00:38:11;;;;;;;15.27;10.97;;;-0.90;1.00;;;;;;5072643;28;20420;-80
2024/01/12 00:40:37;;;;;;;14.50;10.67;;;-0.90;1.00;;;;;;5071229;28;20197;-72
2024/01/12 00:43:03;;;;;;;12.87;10.50;;;-0.90;1.00;;;;;;5071251;28;20167;-80
2024/01/12 00:45:29;;;;;;;18.63;10.30;;;-0.90;1.00;;;;;;5071765;28;20220;-76
2024/01/12 00:47:54;;;;;;;17.10;10.60;;;-0.90;1.00;;;;;;5071877;28;20239;-71
2024/01/12 00:50:20;;;;;;;12.13;10.13;;;-0.90;1.00;;;;;;5071334;28;20194;-70
2024/01/12 00:52:46;;;;;;;12.97;11.47;;;-0.90;1.00;;;;;;5073990;28;20166;-78
2024/01/12 00:55:12;;;;;;;14.40;10.03;;;-0.90;1.00;;;;;;5075250;28;20203;-78
2024/01/12 00:57:37;;;;;;;13.20;10.50;;;-0.90;1.00;;;;;;5076204;28;20174;-70
2024/01/12 01:00:07;;;;;;;16.13;11.47;;;-0.90;1.00;;;;;;5076152;28;20412;-70
2024/01/12 01:02:32;;;;;;;11.95;9.57;;;-0.90;1.00;;;;;;5076195;28;20167;-79
2024/01/12 01:04:58;;;;;;;15.93;10.70;;;-0.90;1.00;;;;;;5074643;28;20177;-71
2024/01/12 01:07:24;;;;;;;12.00;10.70;;;-0.90;1.00;;;;;;5075662;28;20186;-76
2024/01/12 01:09:49;;;;;;;14.40;9.53;;;-0.90;1.00;;;;;;5075786;28;20217;-78
2024/01/12 01:12:15;;;;;;;15.13;10.10;;;-0.90;1.00;;;;;;5076002;28;20630;-70
2024/01/12 01:14:41;;;;;;;13.80;10.43;;;-1.00;1.00;;;;;;5074992;28;20647;-70
2024/01/12 01:17:06;;;;;;;13.13;11.27;;;-1.00;1.00;;;;;;5074836;28;20176;-78
2024/01/12 01:19:33;;;;;;;11.17;9.83;;;-1.00;1.00;;;;;;5075656;28;20182;-71
2024/01/12 01:21:59;;;;;;;18.58;10.80;;;-1.00;1.00;;;;;;5075795;28;20158;-79
2024/01/12 01:24:28;;;;;;;15.10;10.90;;;-1.00;1.00;;;;;;5074761;28;20177;-79
2024/01/12 01:26:55;;;;;;;10.98;9.63;;;-1.10;1.00;;;;;;5075032;28;20397;-70
2024/01/12 01:29:21;;;;;;;14.70;10.65;;;-1.20;1.00;;;;;;5075483;28;20185;-78
2024/01/12 01:31:47;;;;;;;11.05;9.90;;;-1.20;1.00;;;;;;5075547;28;20197;-69
2024/01/12 01:34:14;;;;;;;10.00;8.63;;;-1.20;1.00;;;;;;5075407;28;20193;-70
2024/01/12 01:36:40;;;;;;;13.25;11.07;;;-1.20;1.00;;;;;;5074610;28;20166;-79
2024/01/12 01:39:05;;;;;;;12.10;9.90;;;-1.20;1.00;;;;;;5075178;28;20186;-79
2024/01/12 01:41:31;;;;;;;11.43;9.30;;;-1.20;1.00;;;;;;5074781;28;20178;-79
2024/01/12 01:43:57;;;;;;;15.30;10.33;;;-1.20;1.00;;;;;;5074308;28;20178;-69
2024/01/12 01:46:23;;;;;;;15.07;11.20;;;-1.20;1.00;;;;;;5073466;28;20643;-70
2024/01/12 01:48:49;;;;;;;13.75;9.90;;;-1.20;1.00;;;;;;5075303;28;20666;-70
2024/01/12 01:51:15;;;;;;;11.52;8.93;;;-1.20;1.00;;;;;;5073808;28;20205;-72
2024/01/12 01:53:41;;;;;;;11.55;9.95;;;-1.20;1.00;;;;;;5073639;28;20666;-70
2024/01/12 01:56:09;;;;;;;14.35;9.82;;;-1.20;1.00;;;;;;5074140;28;20244;-78
2024/01/12 01:58:35;;;;;;;10.95;9.13;;;-1.20;1.00;;;;;;5074429;28;20186;-70
2024/01/12 02:01:02;;;;;;;10.10;9.02;;;-1.10;1.00;;;;;;5075016;28;20655;-69
2024/01/12 02:03:28;;;;;;;9.93;8.93;;;-1.10;1.00;;;;;;5072600;28;20639;-71
2024/01/12 02:05:56;;;;;;;11.05;8.52;;;-1.10;1.00;;;;;;5073892;28;20212;-77
2024/01/12 02:08:23;;;;;;;12.88;9.70;;;-1.10;1.00;;;;;;5074764;28;20193;-73
2024/01/12 02:10:52;;;;;;;13.65;10.15;;;-1.10;1.00;;;;;;5073755;28;20230;-74
2024/01/12 02:13:18;;;;;;;11.05;9.82;;;-1.10;1.00;;;;;;5073551;28;20170;-78
2024/01/12 02:15:44;;;;;;;11.23;8.98;;;-1.00;1.00;;;;;;5073079;28;20620;-77
2024/01/12 02:18:09;;;;;;;12.67;10.80;;;-1.10;1.00;;;;;;5073282;28;20275;-69
2024/01/12 02:20:35;;;;;;;14.00;10.83;;;-1.10;1.00;;;;;;5074545;28;20177;-78
2024/01/12 02:23:01;;;;;;;15.07;10.17;;;-1.10;1.00;;;;;;5074617;28;20175;-75
2024/01/12 02:25:27;;;;;;;14.47;10.60;;;-1.10;1.00;;;;;;5073712;28;20224;-69
2024/01/12 02:27:52;;;;;;;14.30;10.27;;;-1.10;1.00;;;;;;5074252;28;20696;-76
2024/01/12 02:30:18;;;;;;;11.77;10.00;;;-1.10;1.00;;;;;;5074451;28;20221;-69
2024/01/12 02:32:44;;;;;;;13.57;10.57;;;-1.10;1.00;;;;;;5073064;28;20820;-69
2024/01/12 02:35:10;;;;;;;18.23;10.53;;;-1.10;1.00;;;;;;5072611;28;20170;-70
2024/01/12 02:37:35;;;;;;;11.60;9.23;;;-1.10;1.00;;;;;;5072937;28;20194;-78
2024/01/12 02:40:01;;;;;;;12.67;10.83;;;-1.10;1.00;;;;;;5073072;28;20178;-78
2024/01/12 02:42:27;;;;;;;15.30;11.10;;;-1.10;1.00;;;;;;5074295;28;20213;-69
2024/01/12 02:44:53;;;;;;;12.00;10.80;;;-1.10;1.00;;;;;;5073351;28;20634;-78
2024/01/12 02:47:18;;;;;;;13.03;10.30;;;-1.20;1.00;;;;;;5074084;28;20170;-79
2024/01/12 02:49:44;;;;;;;13.33;10.20;;;-1.10;1.00;;;;;;5072299;28;20170;-76
2024/01/12 02:52:10;;;;;;;12.03;9.40;;;-1.10;1.00;;;;;;5073376;28;20630;-73
2024/01/12 02:54:35;;;;;;;10.17;9.07;;;-1.10;1.00;;;;;;5072900;28;20158;-78
2024/01/12 02:57:01;;;;;;;12.23;10.57;;;-1.20;1.00;;;;;;5073921;28;20189;-69
2024/01/12 02:59:27;;;;;;;17.17;11.40;;;-1.20;1.00;;;;;;5073875;28;20182;-72
2024/01/12 03:01:52;;;;;;;10.93;9.27;;;-1.20;99.90;;;;;;5072521;28;20170;-74
2024/01/12 03:04:18;;;;;;;11.80;10.60;;;-1.20;99.90;;;;;;5073641;28;20165;-79
2024/01/12 03:06:43;;;;;;;16.80;11.30;;;-1.20;99.90;;;;;;5072501;28;20193;-70
2024/01/12 03:09:10;;;;;;;12.93;10.10;;;-1.20;99.90;;;;;;5073660;28;20185;-79
2024/01/12 03:11:35;;;;;;;14.82;10.88;;;-1.30;99.90;;;;;;5072970;28;20190;-72
2024/01/12 03:14:01;;;;;;;13.37;10.43;;;-1.30;99.90;;;;;;5073461;28;20267;-69
2024/01/12 03:16:27;;;;;;;11.30;10.10;;;-1.30;99.90;;;;;;5071675;28;20576;-73
2024/01/12 03:18:53;;;;;;;13.75;11.40;;;-1.30;99.90;;;;;;5073399;28;20270;-71
2024/01/12 03:21:19;;;;;;;11.10;9.97;;;-1.30;99.90;;;;;;5073522;28;20261;-67
2024/01/12 03:23:45;;;;;;;11.93;10.73;;;-1.30;99.90;;;;;;5073497;28;20538;-67
2024/01/12 03:26:10;;;;;;;12.27;10.10;;;-1.30;99.90;;;;;;5072572;28;20440;-76
2024/01/12 03:28:36;;;;;;;11.30;9.53;;;-1.20;99.90;;;;;;5072642;28;20429;-77
2024/01/12 03:31:03;;;;;;;10.63;9.10;;;-1.20;99.90;;;;;;5073301;28;20198;-67
2024/01/12 03:33:29;;;;;;;10.93;9.85;;;-1.20;99.90;;;;;;5073297;28;20504;-67
2024/01/12 03:35:55;;;;;;;17.50;9.70;;;-1.20;99.90;;;;;;5072531;28;20313;-67
2024/01/12 03:38:21;;;;;;;10.47;9.47;;;-1.10;99.90;;;;;;5073169;28;20272;-70
2024/01/12 03:40:46;;;;;;;11.37;9.70;;;-1.10;1.00;;;;;;5073310;28;20178;-69
2024/01/12 03:43:12;;;;;;;12.47;10.00;;;-1.10;1.00;;;;;;5072242;28;20635;-76
2024/01/12 03:45:38;;;;;;;15.33;11.10;;;-1.00;1.00;;;;;;5071743;28;20166;-69
2024/01/12 03:48:03;;;;;;;12.10;10.00;;;-1.00;1.00;;;;;;5073079;28;20193;-69
2024/01/12 03:50:29;;;;;;;11.43;10.30;;;-1.00;1.00;;;;;;5071850;28;20206;-70
2024/01/12 03:52:55;;;;;;;19.17;9.80;;;-1.10;1.00;;;;;;5072163;28;20409;-70
2024/01/12 03:55:20;;;;;;;12.27;10.40;;;-1.00;1.00;;;;;;5072301;28;20691;-69
2024/01/12 03:57:46;;;;;;;11.63;10.40;;;-1.00;1.00;;;;;;5073107;28;20593;-69
2024/01/12 04:00:12;;;;;;;11.23;9.93;;;-0.90;1.00;;;;;;5073145;28;20659;-71
2024/01/12 04:02:38;;;;;;;11.10;10.00;;;-0.90;1.00;;;;;;5071811;28;20174;-70
2024/01/12 04:05:04;;;;;;;10.37;9.23;;;-1.00;1.00;;;;;;5070222;28;20232;-70
2024/01/12 04:07:30;;;;;;;16.30;10.20;;;-1.00;1.00;;;;;;5072868;28;20643;-80
2024/01/12 04:09:56;;;;;;;14.63;10.67;;;-0.90;1.00;;;;;;5072947;28;20205;-68
2024/01/12 04:12:21;;;;;;;12.37;9.17;;;-0.90;1.00;;;;;;5072938;28;20235;-70
2024/01/12 04:14:47;;;;;;;9.93;9.03;;;-0.90;1.00;;;;;;5071975;28;20174;-74
2024/01/12 04:17:13;;;;;;;18.80;10.10;;;-0.90;1.00;;;;;;5072777;28;20166;-74
2024/01/12 04:19:39;;;;;;;12.17;10.00;;;-0.90;1.00;;;;;;5073013;28;20654;-77
2024/01/12 04:22:04;;;;;;;12.70;8.90;;;-0.80;1.00;;;;;;5071150;28;20485;-79
2024/01/12 04:24:31;;;;;;;11.60;8.07;;;-0.80;1.00;;;;;;5072504;28;20184;-77
2024/01/12 04:26:57;;;;;;;10.32;9.30;;;-0.80;1.00;;;;;;5074283;28;20162;-79
2024/01/12 04:29:22;;;;;;;11.13;9.57;;;-0.90;1.00;;;;;;5076667;28;20192;-70
2024/01/12 04:31:48;;;;;;;12.20;9.67;;;-0.90;1.00;;;;;;5076555;28;20237;-79
2024/01/12 04:34:15;;;;;;;10.87;9.77;;;-0.90;1.00;;;;;;5076703;28;20626;-78
2024/01/12 04:36:41;;;;;;;17.92;10.52;;;-0.90;1.00;;;;;;5075689;28;20603;-79
2024/01/12 04:39:07;;;;;;;11.67;9.13;;;-0.90;1.00;;;;;;5076455;28;20213;-78
2024/01/12 04:41:32;;;;;;;10.40;9.40;;;-0.90;1.00;;;;;;5075849;28;20504;-71
2024/01/12 04:43:58;;;;;;;9.90;8.83;;;-0.90;1.00;;;;;;5076474;28;20200;-68
2024/01/12 04:46:24;;;;;;;10.70;9.67;;;-0.90;1.00;;;;;;5075478;28;20195;-79
2024/01/12 04:48:49;;;;;;;16.23;10.10;;;-0.90;1.00;;;;;;5076230;28;20706;-78
2024/01/12 04:51:15;;;;;;;12.03;9.50;;;-0.90;1.00;;;;;;5076206;28;20281;-69
2024/01/12 04:53:41;;;;;;;11.37;9.83;;;-0.90;1.00;;;;;;5075275;28;20185;-69
2024/01/12 04:56:06;;;;;;;10.07;8.80;;;-0.90;1.00;;;;;;5075382;28;20628;-76
2024/01/12 04:58:32;;;;;;;12.93;8.93;;;-0.90;1.00;;;;;;5075500;28;20191;-75
2024/01/12 05:00:58;;;;;;;10.07;9.17;;;-0.90;1.00;;;;;;5075972;28;20658;-77
2024/01/12 05:03:24;;;;;;;20.97;10.17;;;-0.90;1.00;;;;;;5076111;28;20694;-69
2024/01/12 05:05:50;;;;;;;12.50;10.00;;;-0.90;1.00;;;;;;5075084;28;20432;-70
2024/01/12 05:08:15;;;;;;;14.13;9.70;;;-0.90;1.00;;;;;;5075991;28;20193;-71
2024/01/12 05:10:41;;;;;;;10.70;9.23;;;-0.90;1.00;;;;;;5075873;28;20276;-70
2024/01/12 05:13:07;;;;;;;12.73;10.80;;;-0.90;1.00;;;;;;5074472;28;20243;-76
2024/01/12 05:15:32;;;;;;;11.03;9.83;;;-1.00;1.00;;;;;;5073615;28;20657;-69
2024/01/12 05:17:58;;;;;;;11.83;9.67;;;-0.90;1.00;;;;;;5075768;28;20201;-76
2024/01/12 05:20:25;;;;;;;13.73;9.50;;;-1.00;1.00;;;;;;5075897;28;20246;-78
2024/01/12 05:22:50;;;;;;;15.23;10.40;;;-1.00;99.90;;;;;;5074546;28;20177;-79
2024/01/12 05:25:16;;;;;;;18.20;9.83;;;-1.00;99.90;;;;;;5074797;28;20586;-78
2024/01/12 05:27:42;;;;;;;9.57;8.67;;;-1.00;99.90;;;;;;5074580;28;20212;-77
2024/01/12 05:30:08;;;;;;;15.73;10.50;;;-1.00;99.90;;;;;;5075354;28;20274;-71
2024/01/12 05:32:33;;;;;;;11.80;9.20;;;-1.00;99.90;;;;;;5075033;28;20627;-69
2024/01/12 05:34:59;;;;;;;12.33;9.47;;;-1.00;99.90;;;;;;5074671;28;20393;-69
2024/01/12 05:37:25;;;;;;;15.10;10.83;;;-1.00;99.90;;;;;;5075312;28;20163;-79
2024/01/12 05:39:51;;;;;;;10.97;9.00;;;-1.00;99.90;;;;;;5075483;28;20224;-70
2024/01/12 05:42:16;;;;;;;12.80;8.87;;;-1.00;99.90;;;;;;5074415;28;20174;-69
2024/01/12 05:44:42;;;;;;;11.00;9.90;;;-1.00;99.90;;;;;;5073152;28;20170;-70
2024/01/12 05:47:08;;;;;;;13.33;10.47;;;-1.10;99.90;;;;;;5075381;28;20280;-71
2024/01/12 05:49:36;;;;;;;12.30;10.47;;;-1.10;99.90;;;;;;5074459;28;20191;-73
2024/01/12 05:52:03;;;;;;;18.85;10.20;;;-1.00;99.90;;;;;;5075266;28;20272;-69
2024/01/12 05:54:28;;;;;;;10.95;9.23;;;-1.10;99.90;;;;;;5074975;28;20224;-74
2024/01/12 05:56:54;;;;;;;10.87;9.80;;;-1.10;99.90;;;;;;5073182;28;20200;-68
2024/01/12 05:59:20;;;;;;;10.17;9.17;;;-1.20;99.90;;;;;;5074900;28;20248;-77
2024/01/12 06:01:46;;;;;;;15.87;10.00;;;-1.20;99.90;;;;;;5073914;28;20186;-69
2024/01/12 06:04:12;;;;;;;9.38;8.48;;;-1.20;99.90;;;;;;5074977;28;20174;-74
2024/01/12 06:06:40;;;;;;;12.37;10.30;;;-1.20;99.90;;;;;;5073286;28;20715;-69
2024/01/12 06:09:06;;;;;;;15.18;9.88;;;-1.10;99.90;;;;;;5074823;28;20198;-69
2024/01/12 06:11:32;;;;;;;11.73;8.63;;;-1.10;99.90;;;;;;5073495;28;20208;-71
2024/01/12 06:13:57;;;;;;;10.17;9.10;;;-1.10;99.90;;;;;;5074703;28;20194;-78
2024/01/12 06:16:23;;;;;;;11.23;10.10;;;-1.10;99.90;;;;;;5073842;28;20170;-69
2024/01/12 06:18:49;;;;;;;9.80;8.80;;;-1.10;99.90;;;;;;5073379;28;20300;-69
2024/01/12 06:21:14;;;;;;;16.90;9.77;;;-1.10;99.90;;;;;;5074672;28;20166;-71
2024/01/12 06:23:40;;;;;;;12.87;9.77;;;-1.10;1.00;;;;;;5074535;28;20206;-73
2024/01/12 06:26:06;;;;;;;15.33;8.90;;;-1.10;1.00;;;;;;5073082;28;20170;-69
2024/01/12 06:28:31;;;;;;;13.30;9.70;;;-1.00;1.00;;;;;;5074252;28;20209;-79
2024/01/12 06:30:57;;;;;;;19.40;10.10;;;-1.00;1.00;;;;;;5073287;28;20226;-77
2024/01/12 06:33:23;;;;;;;16.60;8.27;;;-0.90;1.00;;;;;;5073444;28;20184;-70
2024/01/12 06:35:48;;;;;;;12.23;10.10;;;-0.90;1.00;;;;;;5073369;28;20162;-70
2024/01/12 06:38:14;;;;;;;12.67;9.73;;;-0.90;1.00;;;;;;5074296;28;20193;-69
2024/01/12 06:40:40;;;;;;;13.13;9.70;;;-0.90;1.00;;;;;;5074141;28;20200;-72
2024/01/12 06:43:05;;;;;;;14.07;10.50;;;-0.90;1.00;;;;;;5073417;28;20556;-70
2024/01/12 06:45:31;;;;;;;10.90;9.20;;;-0.80;1.00;;;;;;5073305;28;20166;-77
2024/01/12 06:47:57;;;;;;;15.20;10.70;;;-0.70;1.00;;;;;;5073923;28;20481;-76
2024/01/12 06:50:22;;;;;;;12.18;8.13;;;-0.60;1.00;;;;;;5071652;28;20465;-78
2024/01/12 06:52:48;;;;;;;14.03;10.90;;;-0.60;1.00;;;;;;5073039;28;20202;-69
2024/01/12 06:55:14;;;;;;;18.47;10.17;;;-0.60;1.00;;;;;;5073193;28;20162;-78
2024/01/12 06:57:40;;;;;;;15.00;9.47;;;-0.60;1.00;;;;;;5073758;28;20460;-78
2024/01/12 07:00:06;;;;;;;23.73;9.70;;;-0.50;1.00;;;;;;5073771;28;20201;-78
2024/01/12 07:02:34;;;;;;;20.30;9.90;;;-0.60;1.00;;;;;;5073314;28;20491;-69
2024/01/12 07:04:59;;;;;;;26.25;7.50;;;-0.70;1.00;;;;;;5072742;28;20166;-78
2024/01/12 07:07:25;;;;;;;17.83;7.50;;;-0.70;1.00;;;;;;5073642;28;20530;-77
2024/01/12 07:09:51;;;;;;;17.50;7.43;;;-0.70;1.00;;;;;;5073610;28;20483;-68
2024/01/12 07:12:16;;;;;;;17.20;7.40;;;-0.70;1.00;;;;;;5073581;28;20815;-77
2024/01/12 07:14:42;;;;;;;20.60;7.33;;;-0.70;1.00;;;;;;5072805;28;20269;-77
2024/01/12 07:17:08;;;;;;;13.17;8.00;;;-0.70;24.20;;;;;;5073666;28;20623;-68
2024/01/12 07:19:33;;;;;;;24.37;8.03;;;-0.70;70.60;;;;;;5073447;28;20244;-70
2024/01/12 07:21:59;;;;;;;26.97;8.53;;;-0.70;93.70;;;;;;5072897;28;20166;-68
2024/01/12 07:24:25;;;;;;;23.63;7.73;;;-0.70;99.90;;;;;;5073198;28;20166;-69
2024/01/12 07:26:50;;;;;;;19.87;7.03;;;-0.60;99.90;;;;;;5071739;28;20181;-74
2024/01/12 07:29:16;;;;;;;20.87;7.70;;;-0.60;99.90;;;;;;5073341;28;20641;-72
2024/01/12 07:31:42;;;;;;;17.03;7.20;;;-0.60;99.90;;;;;;5073397;28;20663;-69
2024/01/12 07:34:08;;;;;;;28.17;10.17;;;-0.50;99.90;;;;;;5073381;28;20733;-69
2024/01/12 07:36:34;;;;;;;31.83;7.93;;;-0.50;99.90;;;;;;5072484;28;20174;-78
2024/01/12 07:38:59;;;;;;;14.10;9.43;;;-0.40;99.90;;;;;;5072542;28;20421;-70
2024/01/12 07:41:26;;;;;;;12.03;8.20;;;-0.50;99.90;;;;;;5073181;28;20261;-77
2024/01/12 07:43:53;;;;;;;9.05;6.90;;;-0.40;99.90;;;;;;5072056;28;20174;-77
2024/01/12 07:46:19;;;;;;;11.18;6.70;;;-0.30;99.90;;;;;;5072270;28;20171;-78
2024/01/12 07:48:50;;;;;;;8.80;7.27;;;-0.30;99.90;;;;;;5072112;28;20281;-74
2024/01/12 07:51:16;;;;;;;9.68;7.50;;;-0.20;99.90;;;;;;5071697;28;20453;-76
2024/01/12 07:53:42;;;;;;;13.73;7.37;;;-0.10;1.00;;;;;;5073187;28;20174;-78
2024/01/12 07:56:08;;;;;;;13.70;9.17;;;-0.10;1.00;;;;;;5072156;28;20800;-78
2024/01/12 07:58:33;;;;;;;14.13;9.00;;;0.00;1.00;;;;;;5070998;28;20515;-74
2024/01/12 08:00:59;;;;;;;14.93;7.87;;;0.00;1.00;;;;;;5071721;28;20223;-69
2024/01/12 08:03:25;;;;;;;17.10;8.97;;;0.10;1.00;;;;;;5076168;28;20253;-71
2024/01/12 08:05:51;;;;;;;18.17;8.43;;;0.10;1.00;;;;;;5076392;28;20196;-69
2024/01/12 08:08:18;;;;;;;13.93;7.93;;;0.20;1.00;;;;;;5077045;28;20186;-78
2024/01/12 08:10:45;;;;;;;12.40;8.93;;;0.20;1.00;;;;;;5075810;28;20487;-76
2024/01/12 08:13:12;;;;;;;10.15;7.75;;;0.30;1.00;;;;;;5077119;28;20825;-73
2024/01/12 08:15:38;;;;;;;14.90;9.60;;;0.30;1.00;;;;;;5074624;28;20307;-69
2024/01/12 08:18:04;;;;;;;12.90;9.00;;;0.30;1.00;;;;;;5076529;28;20189;-77
2024/01/12 08:20:29;;;;;;;21.83;9.90;;;0.20;1.00;;;;;;5076911;28;20174;-70
2024/01/12 08:22:55;;;;;;;15.03;10.20;;;0.20;1.00;;;;;;5076955;28;20412;-77
2024/01/12 08:25:23;;;;;;;17.03;10.73;;;0.30;1.00;;;;;;5076001;28;20172;-69
2024/01/12 08:27:49;;;;;;;17.90;10.50;;;0.40;1.00;;;;;;5076794;28;20267;-77
2024/01/12 08:30:14;;;;;;;22.53;11.33;;;0.30;1.00;;;;;;5076732;28;20641;-71
2024/01/12 08:32:40;;;;;;;17.83;11.50;;;0.30;1.00;;;;;;5075653;28;20635;-69
2024/01/12 08:35:06;;;;;;;18.40;11.60;;;0.40;1.00;;;;;;5075214;28;20159;-73
2024/01/12 08:37:32;;;;;;;12.90;8.77;;;0.30;1.00;;;;;;5076385;28;20186;-69
2024/01/12 08:39:58;;;;;;;16.00;10.40;;;0.30;1.00;;;;;;5076565;28;20173;-72
2024/01/12 08:42:24;;;;;;;14.38;10.88;;;0.20;1.00;;;;;;5076640;28;20192;-69
2024/01/12 08:44:50;;;;;;;25.03;11.10;;;0.30;1.00;;;;;;5075540;28;21042;-69
2024/01/12 08:47:15;;;;;;;20.07;9.70;;;0.40;1.00;;;;;;5075329;28;20594;-77
2024/01/12 08:49:41;;;;;;;20.00;10.87;;;0.40;1.00;;;;;;5076421;28;20170;-77
2024/01/12 08:52:07;;;;;;;12.03;9.30;;;0.50;1.00;;;;;;5076339;28;20268;-76
2024/01/12 08:54:32;;;;;;;15.30;10.33;;;0.60;1.00;;;;;;5073631;28;20166;-72
2024/01/12 08:56:58;;;;;;;14.63;10.67;;;0.60;1.00;;;;;;5076205;28;20684;-70
2024/01/12 08:59:25;;;;;;;13.97;10.43;;;0.70;1.00;;;;;;5075166;28;20706;-78
2024/01/12 09:01:51;;;;;;;17.27;9.27;;;0.80;1.00;;;;;;5076212;28;20655;-70
2024/01/12 09:04:17;;;;;;;14.57;10.00;;;0.80;1.00;;;;;;5076191;28;20412;-72
2024/01/12 09:06:42;;;;;;;19.10;10.10;;;0.90;1.00;;;;;;5075013;28;20712;-76
2024/01/12 09:09:08;;;;;;;13.57;8.67;;;1.00;1.00;;;;;;5075817;28;20924;-75
2024/01/12 09:11:34;;;;;;;14.30;9.57;;;1.00;1.00;;;;;;5075392;28;20194;-76
2024/01/12 09:14:00;;;;;;;17.53;9.47;;;1.10;1.00;;;;;;5075728;28;20166;-77
2024/01/12 09:16:25;;;;;;;18.30;11.10;;;1.10;1.00;;;;;;5075133;28;20192;-69
2024/01/12 09:18:51;;;;;;;12.23;9.07;;;1.10;1.00;;;;;;5075487;28;20681;-75
2024/01/12 09:21:17;;;;;;;12.00;10.47;;;1.10;1.00;;;;;;5074484;28;20626;-71
2024/01/12 09:23:43;;;;;;;12.30;9.83;;;1.20;1.00;;;;;;5075409;28;20251;-80
2024/01/12 09:26:11;;;;;;;14.47;9.73;;;1.00;1.00;;;;;;5060243;28;20240;-73
2024/01/12 09:28:40;;;;;;;11.73;8.50;;;1.00;1.00;;;;;;5053665;28;20425;-71
2024/01/12 09:31:06;;;;;;;13.80;11.60;;;1.10;1.00;;;;;;5055237;28;20550;-78
2024/01/12 09:33:32;;;;;;;15.33;9.33;;;1.30;1.00;;;;;;5055630;28;20746;-69
2024/01/12 09:35:58;;;;;;;18.03;9.33;;;1.20;1.00;;;;;;5054707;28;20481;-74
2024/01/12 09:38:23;;;;;;;16.57;8.83;;;1.10;1.00;;;;;;5055393;28;20424;-78
2024/01/12 09:40:49;;;;;;;15.73;9.80;;;1.20;1.00;;;;;;5054327;28;20937;-73
2024/01/12 09:43:16;;;;;;;14.50;9.20;;;1.20;1.00;;;;;;5054075;28;20175;-69
2024/01/12 09:45:44;;;;;;;14.80;9.33;;;1.30;1.00;;;;;;5054187;28;20902;-70
2024/01/12 09:48:10;;;;;;;22.23;9.80;;;1.30;1.00;;;;;;5054740;28;20425;-69
2024/01/12 09:50:36;;;;;;;18.50;10.60;;;1.30;1.00;;;;;;5054869;28;20532;-70
2024/01/12 09:53:01;;;;;;;11.23;9.57;;;1.30;1.00;;;;;;5053968;28;20501;-69
2024/01/12 09:55:27;;;;;;;9.70;8.33;;;1.30;1.00;;;;;;5054265;28;20402;-74
2024/01/12 09:57:54;;;;;;;15.10;8.40;;;1.30;1.00;;;;;;5055071;28;20193;-79
2024/01/12 10:00:21;;;;;;;14.50;9.13;;;1.30;1.00;;;;;;5055098;28;20162;-77
2024/01/12 10:02:47;;;;;;;11.77;7.70;;;1.30;1.00;;;;;;5055046;28;20488;-75
2024/01/12 10:05:12;;;;;;;12.93;9.37;;;1.30;1.00;;;;;;5052681;28;20488;-78
2024/01/12 10:07:38;;;;;;;20.70;10.87;;;1.40;1.00;;;;;;5054283;28;20422;-77
2024/01/12 10:10:05;;;;;;;17.50;10.67;;;1.40;1.00;;;;;;5054864;28;20176;-73
2024/01/12 10:12:31;;;;;;;15.90;9.23;;;1.40;1.00;;;;;;5054966;28;20208;-79
2024/01/12 10:15:03;;;;;;;14.13;8.73;;;1.40;1.00;;;;;;5053948;28;20397;-69
2024/01/12 10:17:31;;;;;;;13.80;8.20;;;1.60;1.00;;;;;;5054617;28;20655;-74
2024/01/12 10:19:57;;;;;;;20.80;9.13;;;1.70;1.00;;;;;;5054746;28;20400;-70
2024/01/12 10:22:23;;;;;;;18.20;8.93;;;1.80;1.00;;;;;;5054648;28;20402;-69
2024/01/12 10:25:03;;;;;;;13.00;8.47;;;1.70;1.00;;;;;;5051901;28;20476;-78
2024/01/12 10:27:29;;;;;;;13.03;8.00;;;1.70;1.00;;;;;;5053874;28;20412;-80
2024/01/12 10:29:56;;;;;;;15.43;8.63;;;1.80;1.00;;;;;;5054421;28;20488;-80
2024/01/12 10:32:22;;;;;;;11.40;7.50;;;1.90;1.00;;;;;;5054427;28;20397;-69
2024/01/12 10:34:49;;;;;;;15.63;8.40;;;1.90;1.00;;;;;;5052513;28;20416;-70
2024/01/12 10:37:16;;;;;;;11.27;7.73;;;1.80;1.00;;;;;;5053197;28;20402;-70
2024/01/12 10:39:49;;;;;;;15.87;7.63;;;1.80;1.00;;;;;;5054224;28;20428;-78
2024/01/12 10:42:16;;;;;;;16.33;8.03;;;1.70;1.00;;;;;;5052933;28;20505;-78
2024/01/12 10:44:43;;;;;;;11.67;8.53;;;1.70;1.00;;;;;;5053067;28;20433;-74
2024/01/12 10:47:17;;;;;;;16.00;8.77;;;1.70;1.00;;;;;;5053704;28;20396;-69
2024/01/12 10:50:05;;;;;;;9.70;7.50;;;1.80;1.00;;;;;;5054006;28;20437;-79
2024/01/12 10:52:46;;;;;;;13.57;8.77;;;1.80;1.00;;;;;;5054075;28;20463;-69
2024/01/12 10:55:16;;;;;;;13.10;8.20;;;1.90;1.00;;;;;;5053057;28;20432;-78
2024/01/12 10:57:42;;;;;;;10.63;8.57;;;2.00;1.00;;;;;;5052823;28;20747;-76
2024/01/12 11:00:10;;;;;;;14.00;8.90;;;2.10;1.00;;;;;;5053921;28;20487;-68
2024/01/12 11:02:38;;;;;;;15.10;8.80;;;2.10;1.00;;;;;;5053638;28;20400;-68
2024/01/12 11:05:07;;;;;;;24.67;9.17;;;2.20;1.00;;;;;;5052525;28;20412;-79
2024/01/12 11:07:34;;;;;;;14.93;9.10;;;2.20;1.00;;;;;;5053597;28;20456;-71
2024/01/12 11:10:00;;;;;;;15.80;8.00;;;2.20;1.00;;;;;;5053580;28;20408;-70
2024/01/12 11:12:33;;;;;;;11.60;7.43;;;2.20;1.00;;;;;;5052751;28;20827;-73
2024/01/12 11:15:00;;;;;;;17.50;9.47;;;2.30;1.00;;;;;;5052848;28;20433;-72
2024/01/12 11:17:29;;;;;;;14.70;8.60;;;2.30;1.00;;;;;;5053594;28;20821;-79
2024/01/12 11:20:11;;;;;;;17.37;8.97;;;2.40;1.00;;;;;;5053472;28;20409;-69
2024/01/12 11:22:43;;;;;;;15.07;8.93;;;2.40;1.00;;;;;;5052962;28;20394;-73
2024/01/12 11:25:12;;;;;;;23.90;9.70;;;2.40;1.00;;;;;;5052419;28;20479;-68
2024/01/12 11:27:40;;;;;;;17.10;9.03;;;2.40;1.00;;;;;;5053481;28;20468;-76
2024/01/12 11:30:07;;;;;;;23.87;9.93;;;2.50;1.00;;;;;;5053239;28;20929;-71
2024/01/12 11:32:32;;;;;;;15.90;8.50;;;2.60;1.00;;;;;;5053342;28;20408;-78
2024/01/12 11:35:22;;;;;;;15.30;9.60;;;2.60;1.00;;;;;;5052345;28;20398;-70
2024/01/12 11:38:05;;;;;;;14.50;8.03;;;2.60;1.00;;;;;;5053241;28;20190;-74
2024/01/12 11:40:31;;;;;;;9.00;6.60;;;2.70;1.00;;;;;;5052062;28;20421;-78
2024/01/12 11:42:59;;;;;;;13.07;7.77;;;2.60;1.00;;;;;;5052604;28;20809;-69
2024/01/12 11:45:25;;;;;;;10.33;8.07;;;2.60;99.90;;;;;;5051291;28;20414;-69
2024/01/12 11:47:51;;;;;;;14.83;8.07;;;2.70;99.90;;;;;;5053091;28;20433;-67
2024/01/12 11:50:17;;;;;;;17.43;8.73;;;2.80;99.90;;;;;;5052998;28;20526;-77
2024/01/12 11:52:53;;;;;;;16.73;8.23;;;2.80;99.90;;;;;;5051949;28;20262;-68
2024/01/12 11:55:20;;;;;;;16.73;8.43;;;2.80;99.90;;;;;;5052261;28;20420;-68
2024/01/12 11:57:45;;;;;;;12.00;8.00;;;2.80;99.90;;;;;;5052914;28;20417;-72
2024/01/12 12:00:12;;;;;;;18.80;8.30;;;2.80;99.90;;;;;;5051696;28;20828;-72
2024/01/12 12:02:37;;;;;;;17.60;8.50;;;2.80;99.90;;;;;;5052465;28;20179;-67
2024/01/12 12:05:09;;;;;;;16.90;7.73;;;2.80;99.90;;;;;;5052192;28;20762;-76
2024/01/12 12:07:41;;;;;;;15.50;8.23;;;2.90;99.90;;;;;;5052887;28;20214;-69
2024/01/12 12:10:09;;;;;;;18.70;7.60;;;2.90;99.90;;;;;;5051623;28;20421;-68
2024/01/12 12:12:36;;;;;;;16.07;7.93;;;2.90;99.90;;;;;;5052941;28;20409;-77
2024/01/12 12:15:06;;;;;;;13.30;8.40;;;3.00;99.90;;;;;;5051046;28;20417;-78
2024/01/12 12:17:41;;;;;;;17.63;7.43;;;2.90;99.90;;;;;;5052837;28;20411;-66
2024/01/12 12:20:11;;;;;;;14.80;9.40;;;2.90;99.90;;;;;;5050917;28;20910;-77
2024/01/12 12:22:46;;;;;;;16.23;8.23;;;2.90;99.90;;;;;;5051800;28;20464;-79
2024/01/12 12:25:16;;;;;;;10.70;6.40;;;2.90;99.90;;;;;;5050658;28;20800;-77
2024/01/12 12:27:44;;;;;;;16.00;7.03;;;2.90;99.90;;;;;;5052876;28;20414;-67
2024/01/12 12:30:12;;;;;;;8.30;6.50;;;2.90;99.90;;;;;;5051352;28;20826;-77
2024/01/12 12:32:39;;;;;;;14.87;7.67;;;3.00;99.90;;;;;;5051452;28;20413;-68
2024/01/12 12:35:13;;;;;;;22.60;8.60;;;3.10;99.90;;;;;;5051858;28;20412;-73
2024/01/12 12:37:39;;;;;;;20.93;7.60;;;3.10;99.90;;;;;;5052025;28;20494;-67
2024/01/12 12:40:08;;;;;;;12.60;6.80;;;3.20;99.90;;;;;;5051355;28;20472;-73
2024/01/12 12:42:34;;;;;;;23.47;7.77;;;3.20;99.90;;;;;;5052641;28;20428;-70